Tuesday, December 18, 2018, 12:17 PM EST
Back to Local

KGFL, Floyd Bennett Memorial Airport

Location: Queensbury, NY, United States Lat: 43.333
Local Time: 12:17 PM EST (17:17 GMT) Lon: -73.617
Time Zone: US/Eastern Elev: 328 ft

Show me the last for .
Show Decoded

2018-12-18 11:53 METAR KGFL 181653Z AUTO 31014G18KT 10SM CLR M03/M13 A3004 RMK AO2 SLP181
                 T10331133 =
2018-12-18 10:53 METAR KGFL 181553Z AUTO 32011KT 10SM CLR M04/M14 A3005 RMK AO2 SLP184 T10391139
                 =
2018-12-18 09:53 METAR KGFL 181453Z AUTO 31013KT 10SM CLR M04/M14 A3006 RMK AO2 SLP187 T10441139
                 51025 =
2018-12-18 08:53 METAR KGFL 181353Z AUTO 30009KT 10SM CLR M05/M14 A3005 RMK AO2 SLP184 T10501139
                 =
2018-12-18 07:53 METAR KGFL 181253Z AUTO 31013G18KT 10SM BKN060 M06/M14 A3002 RMK AO2 SLP175
                 T10611144 =
2018-12-18 06:53 METAR KGFL 181153Z AUTO 31010G22KT 10SM CLR M07/M15 A2998 RMK AO2 SLP162 7////
                 T10671150 11044 21067 51027 =
2018-12-18 05:53 METAR KGFL 181053Z AUTO 31015G22KT 10SM CLR M06/M15 A2997 RMK AO2 PK WND
                 29027/1018 SLP156 T10611150 =
2018-12-18 04:53 METAR KGFL 180953Z AUTO 31010G18KT 10SM CLR M06/M14 A2993 RMK AO2 PK WND
                 31026/0856 SLP143 T10611144 =
2018-12-18 03:53 METAR KGFL 180853Z AUTO 32008G17KT 280V350 10SM CLR M06/M14 A2990 RMK AO2 SLP133
                 T10561144 51030 =
2018-12-18 02:53 METAR KGFL 180753Z AUTO 33009KT 10SM BKN048 M06/M14 A2988 RMK AO2 SLP127
                 T10561144 =
2018-12-18 01:53 METAR KGFL 180653Z AUTO 33009G14KT 270V010 10SM OVC044 M05/M14 A2985 RMK AO2
                 SLP117 T10501139 =
2018-12-18 00:53 METAR KGFL 180553Z AUTO 32013G27KT 10SM SCT050 M04/M14 A2981 RMK AO2 PK WND
                 31035/0518 SLP102 T10441139 10033 21044 53033 =
2018-12-17 23:53 METAR KGFL 180453Z AUTO 35012G17KT 10SM BKN039 OVC047 M02/M10 A2976 RMK AO2 PK
                 WND 32033/0359 SLP087 T10221100 400501022 =
2018-12-17 22:53 METAR KGFL 180353Z AUTO 32021G31KT 10SM FEW044 M02/M11 A2974 RMK AO2 PK WND
                 31031/0353 SLP077 T10171111 =
2018-12-17 21:53 METAR KGFL 180253Z AUTO 32016G21KT 10SM CLR 01/M09 A2971 RMK AO2 PK WND
                 30030/0229 SLPNO T00061089 53017 =
2018-12-17 20:53 METAR KGFL 180153Z AUTO 32013G17KT 10SM FEW039 OVC060 02/M04 A2968 RMK AO2
                 SLP058 T00221044 =
2018-12-17 19:53 METAR KGFL 180053Z AUTO 30007KT 10SM SCT039 BKN049 OVC075 03/M04 A2967 RMK AO2
                 SLP054 T00281044 =
2018-12-17 18:53 METAR KGFL 172353Z AUTO VRB03KT 10SM OVC038 02/M03 A2966 RMK AO2 SLP051 60000
                 T00221028 10050 20011 51011 =
2018-12-17 17:53 METAR KGFL 172253Z AUTO 00000KT 10SM OVC040 02/M03 A2965 RMK AO2 SLP046
                 T00221028 =
2018-12-17 16:53 METAR KGFL 172153Z AUTO 32005KT 10SM OVC046 04/M03 A2964 RMK AO2 SLP045
                 T00391033 =
2018-12-17 15:53 METAR KGFL 172053Z AUTO 29006KT 10SM SCT050 BKN060 OVC075 04/M03 A2963 RMK AO2
                 SLP039 60000 T00391028 53014 =
2018-12-17 14:53 METAR KGFL 171953Z AUTO 34005KT 10SM FEW041 OVC060 04/M03 A2960 RMK AO2 SLP031
                 T00391028 =
2018-12-17 13:53 METAR KGFL 171853Z AUTO 36007KT 10SM SCT026 BKN041 OVC047 04/00 A2959 RMK AO2
                 RAE01B33E44 SLP025 P0000 T00440000 =
2018-12-17 13:42 METAR KGFL 171842Z AUTO 32005KT 10SM -RA BKN026 BKN035 OVC047 04/00 A2958 RMK
                 AO2 RAE01B33 P0000 T00440000 =
2018-12-17 13:10 METAR KGFL 171810Z AUTO 00000KT 10SM SCT025 SCT075 04/01 A2958 RMK AO2 RAE01
                 P0000 T00440011 =
2018-12-17 12:53 METAR KGFL 171753Z AUTO 30003KT 10SM -RA BKN025 OVC033 04/01 A2959 RMK AO2 RAB52
                 SLP027 P0000 6//// T00390006 10039 20006 56020 =
2018-12-17 12:25 METAR KGFL 171725Z AUTO 23005KT 10SM SCT028 OVC035 03/01 A2959 RMK AO2 T00330006
                 =

Support USWX by starting your Amazon purchase here.